sensor_id;sensor_type;location;lat;lon;timestamp;P1;durP1;ratioP1;P2;durP2;ratioP2
28988;SDS011;16089;59.952;10.818;2023-06-22T00:00:31;32.40;;;25.10;;
28988;SDS011;16089;59.952;10.818;2023-06-22T00:02:58;39.78;;;27.15;;
28988;SDS011;16089;59.952;10.818;2023-06-22T00:05:24;31.15;;;24.92;;
28988;SDS011;16089;59.952;10.818;2023-06-22T00:07:50;36.47;;;27.70;;
28988;SDS011;16089;59.952;10.818;2023-06-22T00:10:17;34.03;;;25.20;;
28988;SDS011;16089;59.952;10.818;2023-06-22T00:12:44;33.97;;;25.13;;
28988;SDS011;16089;59.952;10.818;2023-06-22T00:15:11;36.17;;;25.33;;
28988;SDS011;16089;59.952;10.818;2023-06-22T00:17:37;33.53;;;26.10;;
28988;SDS011;16089;59.952;10.818;2023-06-22T00:20:04;32.85;;;25.30;;
28988;SDS011;16089;59.952;10.818;2023-06-22T00:22:32;33.53;;;25.15;;
28988;SDS011;16089;59.952;10.818;2023-06-22T00:25:04;33.40;;;24.52;;
28988;SDS011;16089;59.952;10.818;2023-06-22T00:27:30;32.05;;;25.60;;
28988;SDS011;16089;59.952;10.818;2023-06-22T00:29:58;37.08;;;27.45;;
28988;SDS011;16089;59.952;10.818;2023-06-22T00:32:24;39.45;;;26.23;;
28988;SDS011;16089;59.952;10.818;2023-06-22T00:34:50;35.10;;;25.58;;
28988;SDS011;16089;59.952;10.818;2023-06-22T00:37:17;35.92;;;28.20;;
28988;SDS011;16089;59.952;10.818;2023-06-22T00:39:43;31.20;;;24.25;;
28988;SDS011;16089;59.952;10.818;2023-06-22T00:42:10;35.83;;;26.13;;
28988;SDS011;16089;59.952;10.818;2023-06-22T00:44:36;34.13;;;25.13;;
28988;SDS011;16089;59.952;10.818;2023-06-22T00:47:04;35.45;;;25.38;;
28988;SDS011;16089;59.952;10.818;2023-06-22T00:49:31;32.83;;;25.48;;
28988;SDS011;16089;59.952;10.818;2023-06-22T00:51:58;37.65;;;27.35;;
28988;SDS011;16089;59.952;10.818;2023-06-22T00:54:24;36.10;;;25.67;;
28988;SDS011;16089;59.952;10.818;2023-06-22T00:56:51;36.20;;;27.30;;
28988;SDS011;16089;59.952;10.818;2023-06-22T00:59:19;36.95;;;27.13;;
28988;SDS011;16089;59.952;10.818;2023-06-22T01:01:45;32.38;;;25.40;;
28988;SDS011;16089;59.952;10.818;2023-06-22T01:04:13;32.38;;;24.20;;
28988;SDS011;16089;59.952;10.818;2023-06-22T01:06:41;33.05;;;26.35;;
28988;SDS011;16089;59.952;10.818;2023-06-22T01:09:11;33.60;;;24.23;;
28988;SDS011;16089;59.952;10.818;2023-06-22T01:11:42;33.63;;;25.08;;
28988;SDS011;16089;59.952;10.818;2023-06-22T01:14:11;31.35;;;24.42;;
28988;SDS011;16089;59.952;10.818;2023-06-22T01:16:40;31.48;;;24.27;;
28988;SDS011;16089;59.952;10.818;2023-06-22T01:19:09;32.38;;;23.38;;
28988;SDS011;16089;59.952;10.818;2023-06-22T01:21:44;32.13;;;25.27;;
28988;SDS011;16089;59.952;10.818;2023-06-22T01:24:15;30.77;;;25.15;;
28988;SDS011;16089;59.952;10.818;2023-06-22T01:26:43;34.20;;;26.02;;
28988;SDS011;16089;59.952;10.818;2023-06-22T01:29:14;41.60;;;27.95;;
28988;SDS011;16089;59.952;10.818;2023-06-22T01:31:41;32.80;;;24.88;;
28988;SDS011;16089;59.952;10.818;2023-06-22T01:34:08;34.95;;;26.67;;
28988;SDS011;16089;59.952;10.818;2023-06-22T01:36:34;33.25;;;24.90;;
28988;SDS011;16089;59.952;10.818;2023-06-22T01:39:02;30.23;;;23.52;;
28988;SDS011;16089;59.952;10.818;2023-06-22T01:41:29;29.73;;;22.38;;
28988;SDS011;16089;59.952;10.818;2023-06-22T01:43:55;33.90;;;23.33;;
28988;SDS011;16089;59.952;10.818;2023-06-22T01:46:24;25.52;;;19.38;;
28988;SDS011;16089;59.952;10.818;2023-06-22T01:48:50;26.27;;;20.35;;
28988;SDS011;16089;59.952;10.818;2023-06-22T01:51:17;25.38;;;19.63;;
28988;SDS011;16089;59.952;10.818;2023-06-22T01:53:44;28.98;;;21.65;;
28988;SDS011;16089;59.952;10.818;2023-06-22T01:56:10;26.45;;;20.13;;
28988;SDS011;16089;59.952;10.818;2023-06-22T01:58:40;19.63;;;14.88;;
28988;SDS011;16089;59.952;10.818;2023-06-22T02:01:11;21.08;;;16.88;;
28988;SDS011;16089;59.952;10.818;2023-06-22T02:03:41;21.10;;;17.38;;
28988;SDS011;16089;59.952;10.818;2023-06-22T02:06:10;24.77;;;16.02;;
28988;SDS011;16089;59.952;10.818;2023-06-22T02:08:40;21.65;;;17.25;;
28988;SDS011;16089;59.952;10.818;2023-06-22T02:11:08;23.00;;;15.05;;
28988;SDS011;16089;59.952;10.818;2023-06-22T02:13:35;20.27;;;14.93;;
28988;SDS011;16089;59.952;10.818;2023-06-22T02:16:02;20.27;;;15.43;;
28988;SDS011;16089;59.952;10.818;2023-06-22T02:18:28;20.02;;;14.98;;
28988;SDS011;16089;59.952;10.818;2023-06-22T02:20:56;20.17;;;15.48;;
28988;SDS011;16089;59.952;10.818;2023-06-22T02:23:22;19.42;;;14.50;;
28988;SDS011;16089;59.952;10.818;2023-06-22T02:25:49;19.27;;;14.40;;
28988;SDS011;16089;59.952;10.818;2023-06-22T02:28:15;18.80;;;13.15;;
28988;SDS011;16089;59.952;10.818;2023-06-22T02:30:41;20.35;;;13.65;;
28988;SDS011;16089;59.952;10.818;2023-06-22T02:33:08;17.13;;;13.70;;
28988;SDS011;16089;59.952;10.818;2023-06-22T02:35:34;16.05;;;12.77;;
28988;SDS011;16089;59.952;10.818;2023-06-22T02:38:03;17.20;;;12.95;;
28988;SDS011;16089;59.952;10.818;2023-06-22T02:40:29;19.40;;;12.18;;
28988;SDS011;16089;59.952;10.818;2023-06-22T02:42:56;16.35;;;13.32;;
28988;SDS011;16089;59.952;10.818;2023-06-22T02:45:26;17.48;;;12.32;;
28988;SDS011;16089;59.952;10.818;2023-06-22T02:47:53;14.40;;;11.68;;
28988;SDS011;16089;59.952;10.818;2023-06-22T02:50:19;15.85;;;11.82;;
28988;SDS011;16089;59.952;10.818;2023-06-22T02:52:45;17.65;;;11.88;;
28988;SDS011;16089;59.952;10.818;2023-06-22T02:55:13;15.93;;;10.63;;
28988;SDS011;16089;59.952;10.818;2023-06-22T02:57:40;16.75;;;10.23;;
28988;SDS011;16089;59.952;10.818;2023-06-22T03:00:09;14.75;;;9.93;;
28988;SDS011;16089;59.952;10.818;2023-06-22T03:02:41;12.05;;;9.65;;
28988;SDS011;16089;59.952;10.818;2023-06-22T03:05:07;15.23;;;9.30;;
28988;SDS011;16089;59.952;10.818;2023-06-22T03:07:39;11.68;;;8.43;;
28988;SDS011;16089;59.952;10.818;2023-06-22T03:10:05;11.45;;;8.60;;
28988;SDS011;16089;59.952;10.818;2023-06-22T03:12:33;12.60;;;8.70;;
28988;SDS011;16089;59.952;10.818;2023-06-22T03:14:59;13.98;;;8.57;;
28988;SDS011;16089;59.952;10.818;2023-06-22T03:17:26;13.52;;;8.43;;
28988;SDS011;16089;59.952;10.818;2023-06-22T03:19:52;10.50;;;8.30;;
28988;SDS011;16089;59.952;10.818;2023-06-22T03:22:19;10.95;;;8.30;;
28988;SDS011;16089;59.952;10.818;2023-06-22T03:24:45;9.35;;;7.45;;
28988;SDS011;16089;59.952;10.818;2023-06-22T03:27:11;11.27;;;7.97;;
28988;SDS011;16089;59.952;10.818;2023-06-22T03:29:39;11.25;;;8.00;;
28988;SDS011;16089;59.952;10.818;2023-06-22T03:32:06;10.85;;;7.20;;
28988;SDS011;16089;59.952;10.818;2023-06-22T03:34:33;10.30;;;7.35;;
28988;SDS011;16089;59.952;10.818;2023-06-22T03:36:59;9.18;;;7.38;;
28988;SDS011;16089;59.952;10.818;2023-06-22T03:39:26;11.02;;;7.38;;
28988;SDS011;16089;59.952;10.818;2023-06-22T03:41:52;10.30;;;7.30;;
28988;SDS011;16089;59.952;10.818;2023-06-22T03:44:18;12.20;;;7.47;;
28988;SDS011;16089;59.952;10.818;2023-06-22T03:46:46;11.07;;;7.50;;
28988;SDS011;16089;59.952;10.818;2023-06-22T03:49:12;9.27;;;6.70;;
28988;SDS011;16089;59.952;10.818;2023-06-22T03:51:38;9.07;;;6.88;;
28988;SDS011;16089;59.952;10.818;2023-06-22T03:54:05;8.13;;;5.65;;
28988;SDS011;16089;59.952;10.818;2023-06-22T03:56:31;9.98;;;6.40;;
28988;SDS011;16089;59.952;10.818;2023-06-22T03:58:57;9.18;;;6.47;;
28988;SDS011;16089;59.952;10.818;2023-06-22T04:01:24;13.88;;;5.72;;
28988;SDS011;16089;59.952;10.818;2023-06-22T04:03:51;8.82;;;6.63;;
28988;SDS011;16089;59.952;10.818;2023-06-22T04:06:18;7.13;;;5.57;;
28988;SDS011;16089;59.952;10.818;2023-06-22T04:08:44;9.82;;;6.57;;
28988;SDS011;16089;59.952;10.818;2023-06-22T04:11:13;12.20;;;6.53;;
28988;SDS011;16089;59.952;10.818;2023-06-22T04:13:39;12.82;;;6.75;;
28988;SDS011;16089;59.952;10.818;2023-06-22T04:16:05;8.38;;;6.50;;
28988;SDS011;16089;59.952;10.818;2023-06-22T04:18:32;7.88;;;5.93;;
28988;SDS011;16089;59.952;10.818;2023-06-22T04:21:00;8.15;;;5.38;;
28988;SDS011;16089;59.952;10.818;2023-06-22T04:23:26;8.93;;;5.80;;
28988;SDS011;16089;59.952;10.818;2023-06-22T04:25:52;7.32;;;5.40;;
28988;SDS011;16089;59.952;10.818;2023-06-22T04:28:18;7.65;;;4.57;;
28988;SDS011;16089;59.952;10.818;2023-06-22T04:30:45;14.93;;;8.10;;
28988;SDS011;16089;59.952;10.818;2023-06-22T04:33:12;11.07;;;6.70;;
28988;SDS011;16089;59.952;10.818;2023-06-22T04:35:38;8.80;;;5.68;;
28988;SDS011;16089;59.952;10.818;2023-06-22T04:38:07;6.93;;;5.10;;
28988;SDS011;16089;59.952;10.818;2023-06-22T04:40:34;8.68;;;4.57;;
28988;SDS011;16089;59.952;10.818;2023-06-22T04:43:00;7.25;;;4.47;;
28988;SDS011;16089;59.952;10.818;2023-06-22T04:45:27;10.02;;;4.53;;
28988;SDS011;16089;59.952;10.818;2023-06-22T04:47:54;8.75;;;4.90;;
28988;SDS011;16089;59.952;10.818;2023-06-22T04:50:20;5.85;;;4.20;;
28988;SDS011;16089;59.952;10.818;2023-06-22T04:52:48;7.47;;;4.05;;
28988;SDS011;16089;59.952;10.818;2023-06-22T04:55:16;6.75;;;3.58;;
28988;SDS011;16089;59.952;10.818;2023-06-22T04:57:43;5.88;;;3.50;;
28988;SDS011;16089;59.952;10.818;2023-06-22T05:00:13;5.35;;;2.95;;
28988;SDS011;16089;59.952;10.818;2023-06-22T05:02:42;7.15;;;3.20;;
28988;SDS011;16089;59.952;10.818;2023-06-22T05:05:09;6.75;;;3.38;;
28988;SDS011;16089;59.952;10.818;2023-06-22T05:07:38;6.72;;;3.28;;
28988;SDS011;16089;59.952;10.818;2023-06-22T05:10:07;8.13;;;3.35;;
28988;SDS011;16089;59.952;10.818;2023-06-22T05:12:35;8.77;;;3.25;;
28988;SDS011;16089;59.952;10.818;2023-06-22T05:15:02;4.65;;;2.75;;
28988;SDS011;16089;59.952;10.818;2023-06-22T05:17:28;5.68;;;2.78;;
28988;SDS011;16089;59.952;10.818;2023-06-22T05:19:54;4.63;;;2.80;;
28988;SDS011;16089;59.952;10.818;2023-06-22T05:22:21;7.82;;;3.22;;
28988;SDS011;16089;59.952;10.818;2023-06-22T05:24:47;4.65;;;2.72;;
28988;SDS011;16089;59.952;10.818;2023-06-22T05:27:13;5.65;;;2.67;;
28988;SDS011;16089;59.952;10.818;2023-06-22T05:29:41;5.47;;;2.65;;
28988;SDS011;16089;59.952;10.818;2023-06-22T05:32:08;4.32;;;2.50;;
28988;SDS011;16089;59.952;10.818;2023-06-22T05:34:35;4.68;;;2.30;;
28988;SDS011;16089;59.952;10.818;2023-06-22T05:37:01;4.82;;;2.47;;
28988;SDS011;16089;59.952;10.818;2023-06-22T05:39:27;7.07;;;3.60;;
28988;SDS011;16089;59.952;10.818;2023-06-22T05:41:54;7.15;;;2.97;;
28988;SDS011;16089;59.952;10.818;2023-06-22T05:44:20;5.18;;;3.03;;
28988;SDS011;16089;59.952;10.818;2023-06-22T05:46:48;5.40;;;2.53;;
28988;SDS011;16089;59.952;10.818;2023-06-22T05:49:15;6.55;;;2.53;;
28988;SDS011;16089;59.952;10.818;2023-06-22T05:51:42;5.82;;;2.20;;
28988;SDS011;16089;59.952;10.818;2023-06-22T05:54:08;4.80;;;2.20;;
28988;SDS011;16089;59.952;10.818;2023-06-22T05:56:35;5.75;;;1.92;;
28988;SDS011;16089;59.952;10.818;2023-06-22T05:59:01;4.43;;;2.13;;
28988;SDS011;16089;59.952;10.818;2023-06-22T06:01:27;4.15;;;2.05;;
28988;SDS011;16089;59.952;10.818;2023-06-22T06:03:56;9.02;;;2.05;;
28988;SDS011;16089;59.952;10.818;2023-06-22T06:06:22;4.35;;;1.95;;
28988;SDS011;16089;59.952;10.818;2023-06-22T06:08:53;3.72;;;1.92;;
28988;SDS011;16089;59.952;10.818;2023-06-22T06:11:20;5.15;;;2.08;;
28988;SDS011;16089;59.952;10.818;2023-06-22T06:13:46;4.45;;;2.78;;
28988;SDS011;16089;59.952;10.818;2023-06-22T06:16:12;6.32;;;3.95;;
28988;SDS011;16089;59.952;10.818;2023-06-22T06:18:39;5.45;;;2.97;;
28988;SDS011;16089;59.952;10.818;2023-06-22T06:21:06;4.82;;;2.22;;
28988;SDS011;16089;59.952;10.818;2023-06-22T06:23:33;4.32;;;2.28;;
28988;SDS011;16089;59.952;10.818;2023-06-22T06:25:59;4.40;;;1.80;;
28988;SDS011;16089;59.952;10.818;2023-06-22T06:28:26;4.55;;;2.03;;
28988;SDS011;16089;59.952;10.818;2023-06-22T06:30:52;3.85;;;2.00;;
28988;SDS011;16089;59.952;10.818;2023-06-22T06:33:19;7.15;;;2.10;;
28988;SDS011;16089;59.952;10.818;2023-06-22T06:35:46;5.75;;;2.33;;
28988;SDS011;16089;59.952;10.818;2023-06-22T06:38:13;5.75;;;2.17;;
28988;SDS011;16089;59.952;10.818;2023-06-22T06:40:40;4.50;;;2.00;;
28988;SDS011;16089;59.952;10.818;2023-06-22T06:43:06;5.20;;;2.20;;
28988;SDS011;16089;59.952;10.818;2023-06-22T06:45:32;3.58;;;2.05;;
28988;SDS011;16089;59.952;10.818;2023-06-22T06:47:59;4.32;;;2.20;;
28988;SDS011;16089;59.952;10.818;2023-06-22T06:50:26;8.63;;;1.98;;
28988;SDS011;16089;59.952;10.818;2023-06-22T06:52:52;5.35;;;2.28;;
28988;SDS011;16089;59.952;10.818;2023-06-22T06:55:19;6.00;;;2.15;;
28988;SDS011;16089;59.952;10.818;2023-06-22T06:57:49;5.93;;;2.05;;
28988;SDS011;16089;59.952;10.818;2023-06-22T07:00:16;6.47;;;2.10;;
28988;SDS011;16089;59.952;10.818;2023-06-22T07:02:43;6.65;;;2.15;;
28988;SDS011;16089;59.952;10.818;2023-06-22T07:05:10;4.80;;;2.17;;
28988;SDS011;16089;59.952;10.818;2023-06-22T07:07:37;4.95;;;2.10;;
28988;SDS011;16089;59.952;10.818;2023-06-22T07:10:03;3.78;;;1.80;;
28988;SDS011;16089;59.952;10.818;2023-06-22T07:12:31;3.88;;;2.00;;
28988;SDS011;16089;59.952;10.818;2023-06-22T07:15:01;5.35;;;1.80;;
28988;SDS011;16089;59.952;10.818;2023-06-22T07:17:28;6.22;;;3.05;;
28988;SDS011;16089;59.952;10.818;2023-06-22T07:19:54;4.07;;;2.33;;
28988;SDS011;16089;59.952;10.818;2023-06-22T07:22:21;4.78;;;1.92;;
28988;SDS011;16089;59.952;10.818;2023-06-22T07:24:47;5.60;;;2.15;;
28988;SDS011;16089;59.952;10.818;2023-06-22T07:27:14;9.38;;;4.80;;
28988;SDS011;16089;59.952;10.818;2023-06-22T07:29:45;6.38;;;2.55;;
28988;SDS011;16089;59.952;10.818;2023-06-22T07:32:11;5.20;;;2.70;;
28988;SDS011;16089;59.952;10.818;2023-06-22T07:34:38;4.82;;;1.80;;
28988;SDS011;16089;59.952;10.818;2023-06-22T07:37:04;4.80;;;2.22;;
28988;SDS011;16089;59.952;10.818;2023-06-22T07:39:30;3.88;;;2.00;;
28988;SDS011;16089;59.952;10.818;2023-06-22T07:41:57;4.20;;;1.60;;
28988;SDS011;16089;59.952;10.818;2023-06-22T07:44:23;4.78;;;1.63;;
28988;SDS011;16089;59.952;10.818;2023-06-22T07:46:51;4.40;;;1.83;;
28988;SDS011;16089;59.952;10.818;2023-06-22T07:49:17;3.53;;;1.73;;
28988;SDS011;16089;59.952;10.818;2023-06-22T07:51:43;4.63;;;1.58;;
28988;SDS011;16089;59.952;10.818;2023-06-22T07:54:10;4.22;;;1.83;;
28988;SDS011;16089;59.952;10.818;2023-06-22T07:56:36;4.22;;;1.90;;
28988;SDS011;16089;59.952;10.818;2023-06-22T07:59:03;4.78;;;1.80;;
28988;SDS011;16089;59.952;10.818;2023-06-22T08:01:29;4.05;;;1.80;;
28988;SDS011;16089;59.952;10.818;2023-06-22T08:03:57;5.53;;;1.70;;
28988;SDS011;16089;59.952;10.818;2023-06-22T08:06:23;4.63;;;1.65;;
28988;SDS011;16089;59.952;10.818;2023-06-22T08:08:50;3.78;;;1.67;;
28988;SDS011;16089;59.952;10.818;2023-06-22T08:11:17;5.82;;;2.20;;
28988;SDS011;16089;59.952;10.818;2023-06-22T08:13:44;5.65;;;2.65;;
28988;SDS011;16089;59.952;10.818;2023-06-22T08:16:10;5.72;;;2.80;;
28988;SDS011;16089;59.952;10.818;2023-06-22T08:18:37;6.97;;;2.17;;
28988;SDS011;16089;59.952;10.818;2023-06-22T08:21:04;3.67;;;1.90;;
28988;SDS011;16089;59.952;10.818;2023-06-22T08:23:31;6.47;;;1.90;;
28988;SDS011;16089;59.952;10.818;2023-06-22T08:25:57;3.70;;;1.70;;
28988;SDS011;16089;59.952;10.818;2023-06-22T08:28:23;4.82;;;1.42;;
28988;SDS011;16089;59.952;10.818;2023-06-22T08:30:50;4.72;;;2.03;;
28988;SDS011;16089;59.952;10.818;2023-06-22T08:33:16;4.47;;;1.40;;
28988;SDS011;16089;59.952;10.818;2023-06-22T08:35:43;6.03;;;1.63;;
28988;SDS011;16089;59.952;10.818;2023-06-22T08:38:10;2.53;;;1.27;;
28988;SDS011;16089;59.952;10.818;2023-06-22T08:40:40;3.00;;;1.50;;
28988;SDS011;16089;59.952;10.818;2023-06-22T08:43:07;4.28;;;1.30;;
28988;SDS011;16089;59.952;10.818;2023-06-22T08:45:33;2.75;;;1.40;;
28988;SDS011;16089;59.952;10.818;2023-06-22T08:47:59;2.70;;;1.27;;
28988;SDS011;16089;59.952;10.818;2023-06-22T08:50:26;2.10;;;1.00;;
28988;SDS011;16089;59.952;10.818;2023-06-22T08:52:52;3.05;;;1.10;;
28988;SDS011;16089;59.952;10.818;2023-06-22T08:55:20;3.42;;;1.10;;
28988;SDS011;16089;59.952;10.818;2023-06-22T08:57:46;4.68;;;1.17;;
28988;SDS011;16089;59.952;10.818;2023-06-22T09:00:13;5.53;;;1.20;;
28988;SDS011;16089;59.952;10.818;2023-06-22T09:02:42;4.78;;;1.40;;
28988;SDS011;16089;59.952;10.818;2023-06-22T09:05:09;2.13;;;1.25;;
28988;SDS011;16089;59.952;10.818;2023-06-22T09:07:35;3.35;;;1.20;;
28988;SDS011;16089;59.952;10.818;2023-06-22T09:10:01;1.35;;;0.75;;
28988;SDS011;16089;59.952;10.818;2023-06-22T09:12:31;1.85;;;0.80;;
28988;SDS011;16089;59.952;10.818;2023-06-22T09:14:57;2.90;;;0.85;;
28988;SDS011;16089;59.952;10.818;2023-06-22T09:17:25;5.43;;;1.13;;
28988;SDS011;16089;59.952;10.818;2023-06-22T09:19:51;3.70;;;1.00;;
28988;SDS011;16089;59.952;10.818;2023-06-22T09:22:18;2.17;;;1.02;;
28988;SDS011;16089;59.952;10.818;2023-06-22T09:24:44;1.88;;;1.08;;
28988;SDS011;16089;59.952;10.818;2023-06-22T09:27:10;3.13;;;1.35;;
28988;SDS011;16089;59.952;10.818;2023-06-22T09:29:38;6.88;;;1.50;;
28988;SDS011;16089;59.952;10.818;2023-06-22T09:32:05;2.67;;;1.33;;
28988;SDS011;16089;59.952;10.818;2023-06-22T09:34:31;4.15;;;1.25;;
28988;SDS011;16089;59.952;10.818;2023-06-22T09:36:57;2.88;;;1.15;;
28988;SDS011;16089;59.952;10.818;2023-06-22T09:39:25;3.58;;;1.08;;
28988;SDS011;16089;59.952;10.818;2023-06-22T09:41:52;2.42;;;1.35;;
28988;SDS011;16089;59.952;10.818;2023-06-22T09:44:18;2.67;;;1.20;;
28988;SDS011;16089;59.952;10.818;2023-06-22T09:46:46;3.40;;;1.30;;
28988;SDS011;16089;59.952;10.818;2023-06-22T09:49:12;2.85;;;1.38;;
28988;SDS011;16089;59.952;10.818;2023-06-22T09:51:38;5.20;;;1.10;;
28988;SDS011;16089;59.952;10.818;2023-06-22T09:54:05;3.65;;;1.15;;
28988;SDS011;16089;59.952;10.818;2023-06-22T09:56:31;2.10;;;1.10;;
28988;SDS011;16089;59.952;10.818;2023-06-22T09:58:57;4.10;;;1.00;;
28988;SDS011;16089;59.952;10.818;2023-06-22T10:01:24;3.25;;;1.27;;
28988;SDS011;16089;59.952;10.818;2023-06-22T10:03:52;2.88;;;1.40;;
28988;SDS011;16089;59.952;10.818;2023-06-22T10:06:20;2.33;;;1.10;;
28988;SDS011;16089;59.952;10.818;2023-06-22T10:08:47;2.90;;;1.25;;
28988;SDS011;16089;59.952;10.818;2023-06-22T10:11:14;7.47;;;1.75;;
28988;SDS011;16089;59.952;10.818;2023-06-22T10:13:40;3.80;;;1.10;;
28988;SDS011;16089;59.952;10.818;2023-06-22T10:16:07;6.80;;;1.40;;
28988;SDS011;16089;59.952;10.818;2023-06-22T10:18:33;3.70;;;1.30;;
28988;SDS011;16089;59.952;10.818;2023-06-22T10:21:01;2.90;;;1.20;;
28988;SDS011;16089;59.952;10.818;2023-06-22T10:23:27;3.22;;;1.13;;
28988;SDS011;16089;59.952;10.818;2023-06-22T10:25:53;3.47;;;1.27;;
28988;SDS011;16089;59.952;10.818;2023-06-22T10:28:22;3.55;;;1.30;;
28988;SDS011;16089;59.952;10.818;2023-06-22T10:30:48;2.30;;;1.10;;
28988;SDS011;16089;59.952;10.818;2023-06-22T10:33:14;6.68;;;1.20;;
28988;SDS011;16089;59.952;10.818;2023-06-22T10:35:41;1.73;;;1.02;;
28988;SDS011;16089;59.952;10.818;2023-06-22T10:38:08;2.30;;;1.10;;
28988;SDS011;16089;59.952;10.818;2023-06-22T10:40:35;6.75;;;1.60;;
28988;SDS011;16089;59.952;10.818;2023-06-22T10:43:20;2.45;;;1.20;;
28988;SDS011;16089;59.952;10.818;2023-06-22T10:45:49;2.00;;;1.00;;
28988;SDS011;16089;59.952;10.818;2023-06-22T10:48:15;2.15;;;1.00;;
28988;SDS011;16089;59.952;10.818;2023-06-22T10:50:41;1.50;;;0.70;;
28988;SDS011;16089;59.952;10.818;2023-06-22T10:53:09;4.70;;;1.10;;
28988;SDS011;16089;59.952;10.818;2023-06-22T10:55:36;3.50;;;1.10;;
28988;SDS011;16089;59.952;10.818;2023-06-22T10:58:02;2.40;;;1.20;;
28988;SDS011;16089;59.952;10.818;2023-06-22T11:00:28;3.05;;;1.10;;
28988;SDS011;16089;59.952;10.818;2023-06-22T11:02:54;2.08;;;1.10;;
28988;SDS011;16089;59.952;10.818;2023-06-22T11:05:21;2.67;;;1.13;;
28988;SDS011;16089;59.952;10.818;2023-06-22T11:07:48;1.70;;;0.90;;
28988;SDS011;16089;59.952;10.818;2023-06-22T11:10:16;6.38;;;1.10;;
28988;SDS011;16089;59.952;10.818;2023-06-22T11:12:42;4.30;;;1.00;;
28988;SDS011;16089;59.952;10.818;2023-06-22T11:15:08;2.45;;;1.05;;
28988;SDS011;16089;59.952;10.818;2023-06-22T11:17:35;3.63;;;1.00;;
28988;SDS011;16089;59.952;10.818;2023-06-22T11:20:02;5.35;;;0.95;;
28988;SDS011;16089;59.952;10.818;2023-06-22T11:22:35;1.83;;;0.90;;
28988;SDS011;16089;59.952;10.818;2023-06-22T11:25:02;2.03;;;0.80;;
28988;SDS011;16089;59.952;10.818;2023-06-22T11:27:29;3.85;;;0.95;;
28988;SDS011;16089;59.952;10.818;2023-06-22T11:29:56;2.28;;;1.10;;
28988;SDS011;16089;59.952;10.818;2023-06-22T11:32:22;1.85;;;0.77;;
28988;SDS011;16089;59.952;10.818;2023-06-22T11:34:48;2.88;;;0.90;;
28988;SDS011;16089;59.952;10.818;2023-06-22T11:37:15;3.65;;;0.88;;
28988;SDS011;16089;59.952;10.818;2023-06-22T11:39:41;5.35;;;2.60;;
28988;SDS011;16089;59.952;10.818;2023-06-22T11:42:08;3.30;;;1.50;;
28988;SDS011;16089;59.952;10.818;2023-06-22T11:44:35;4.32;;;1.40;;
28988;SDS011;16089;59.952;10.818;2023-06-22T11:47:02;5.30;;;0.98;;
28988;SDS011;16089;59.952;10.818;2023-06-22T11:49:29;4.90;;;0.98;;
28988;SDS011;16089;59.952;10.818;2023-06-22T11:51:55;1.65;;;0.90;;
28988;SDS011;16089;59.952;10.818;2023-06-22T11:54:22;3.72;;;0.98;;
28988;SDS011;16089;59.952;10.818;2023-06-22T11:56:48;3.03;;;0.95;;
28988;SDS011;16089;59.952;10.818;2023-06-22T11:59:15;3.92;;;0.90;;
28988;SDS011;16089;59.952;10.818;2023-06-22T12:01:42;6.00;;;1.08;;
28988;SDS011;16089;59.952;10.818;2023-06-22T12:04:09;4.45;;;0.90;;
28988;SDS011;16089;59.952;10.818;2023-06-22T12:06:37;2.78;;;0.70;;
28988;SDS011;16089;59.952;10.818;2023-06-22T12:09:03;5.20;;;0.88;;
28988;SDS011;16089;59.952;10.818;2023-06-22T12:11:30;6.28;;;1.00;;
28988;SDS011;16089;59.952;10.818;2023-06-22T12:13:56;3.58;;;0.90;;
28988;SDS011;16089;59.952;10.818;2023-06-22T12:16:26;5.72;;;2.40;;
28988;SDS011;16089;59.952;10.818;2023-06-22T12:18:54;12.73;;;7.05;;
28988;SDS011;16089;59.952;10.818;2023-06-22T12:21:20;2.63;;;1.40;;
28988;SDS011;16089;59.952;10.818;2023-06-22T12:23:47;5.18;;;1.05;;
28988;SDS011;16089;59.952;10.818;2023-06-22T12:26:13;4.18;;;1.08;;
28988;SDS011;16089;59.952;10.818;2023-06-22T12:28:39;1.48;;;0.77;;
28988;SDS011;16089;59.952;10.818;2023-06-22T12:31:05;4.38;;;0.70;;
28988;SDS011;16089;59.952;10.818;2023-06-22T12:33:32;2.50;;;0.90;;
28988;SDS011;16089;59.952;10.818;2023-06-22T12:35:59;3.42;;;0.98;;
28988;SDS011;16089;59.952;10.818;2023-06-22T12:38:26;7.53;;;1.10;;
28988;SDS011;16089;59.952;10.818;2023-06-22T12:40:52;4.10;;;0.80;;
28988;SDS011;16089;59.952;10.818;2023-06-22T12:43:19;1.30;;;0.70;;
28988;SDS011;16089;59.952;10.818;2023-06-22T12:45:45;3.83;;;1.10;;
28988;SDS011;16089;59.952;10.818;2023-06-22T12:48:11;1.65;;;0.90;;
28988;SDS011;16089;59.952;10.818;2023-06-22T12:50:38;1.98;;;0.90;;
28988;SDS011;16089;59.952;10.818;2023-06-22T12:53:06;5.03;;;0.90;;
28988;SDS011;16089;59.952;10.818;2023-06-22T12:55:32;2.67;;;1.00;;
28988;SDS011;16089;59.952;10.818;2023-06-22T12:57:59;3.17;;;1.10;;
28988;SDS011;16089;59.952;10.818;2023-06-22T13:00:25;2.60;;;1.23;;
28988;SDS011;16089;59.952;10.818;2023-06-22T13:02:51;3.50;;;1.10;;
28988;SDS011;16089;59.952;10.818;2023-06-22T13:05:18;2.70;;;1.40;;
28988;SDS011;16089;59.952;10.818;2023-06-22T13:07:44;3.63;;;1.02;;
28988;SDS011;16089;59.952;10.818;2023-06-22T13:10:12;8.32;;;4.40;;
28988;SDS011;16089;59.952;10.818;2023-06-22T13:12:38;3.97;;;1.40;;
28988;SDS011;16089;59.952;10.818;2023-06-22T13:15:05;5.32;;;2.05;;
28988;SDS011;16089;59.952;10.818;2023-06-22T13:17:32;3.83;;;1.30;;
28988;SDS011;16089;59.952;10.818;2023-06-22T13:19:59;2.72;;;1.50;;
28988;SDS011;16089;59.952;10.818;2023-06-22T13:22:29;2.50;;;1.30;;
28988;SDS011;16089;59.952;10.818;2023-06-22T13:24:55;3.97;;;1.70;;
28988;SDS011;16089;59.952;10.818;2023-06-22T13:27:23;2.67;;;1.42;;
28988;SDS011;16089;59.952;10.818;2023-06-22T13:29:49;6.35;;;1.60;;
28988;SDS011;16089;59.952;10.818;2023-06-22T13:32:16;4.47;;;1.58;;
28988;SDS011;16089;59.952;10.818;2023-06-22T13:34:42;4.85;;;1.67;;
28988;SDS011;16089;59.952;10.818;2023-06-22T13:37:09;3.88;;;1.60;;
28988;SDS011;16089;59.952;10.818;2023-06-22T13:39:35;3.15;;;1.80;;
28988;SDS011;16089;59.952;10.818;2023-06-22T13:42:02;5.10;;;1.90;;
28988;SDS011;16089;59.952;10.818;2023-06-22T13:44:29;2.97;;;1.60;;
28988;SDS011;16089;59.952;10.818;2023-06-22T13:46:56;5.97;;;1.60;;
28988;SDS011;16089;59.952;10.818;2023-06-22T13:49:22;5.60;;;1.80;;
28988;SDS011;16089;59.952;10.818;2023-06-22T13:51:48;5.97;;;1.92;;
28988;SDS011;16089;59.952;10.818;2023-06-22T13:54:15;3.72;;;1.80;;
28988;SDS011;16089;59.952;10.818;2023-06-22T13:56:42;4.38;;;1.90;;
28988;SDS011;16089;59.952;10.818;2023-06-22T13:59:08;4.95;;;2.20;;
28988;SDS011;16089;59.952;10.818;2023-06-22T14:01:37;11.25;;;5.18;;
28988;SDS011;16089;59.952;10.818;2023-06-22T14:04:04;35.22;;;17.85;;
28988;SDS011;16089;59.952;10.818;2023-06-22T14:06:30;21.83;;;11.68;;
28988;SDS011;16089;59.952;10.818;2023-06-22T14:08:56;7.75;;;2.85;;
28988;SDS011;16089;59.952;10.818;2023-06-22T14:11:23;5.43;;;2.90;;
28988;SDS011;16089;59.952;10.818;2023-06-22T14:13:49;18.25;;;5.93;;
28988;SDS011;16089;59.952;10.818;2023-06-22T14:16:15;4.88;;;2.90;;
28988;SDS011;16089;59.952;10.818;2023-06-22T14:18:44;6.40;;;2.63;;
28988;SDS011;16089;59.952;10.818;2023-06-22T14:21:10;4.57;;;2.22;;
28988;SDS011;16089;59.952;10.818;2023-06-22T14:23:36;3.72;;;2.55;;
28988;SDS011;16089;59.952;10.818;2023-06-22T14:26:03;4.10;;;2.50;;